sensor_id;sensor_type;location;lat;lon;timestamp;P1;durP1;ratioP1;P2;durP2;ratioP2
7169;SDS011;3626;42.656;23.312;2022-09-09T00:00:05;17.45;;;11.70;;
7169;SDS011;3626;42.656;23.312;2022-09-09T00:00:12;18.07;;;11.87;;
7169;SDS011;3626;42.656;23.312;2022-09-09T00:00:21;20.13;;;12.27;;
7169;SDS011;3626;42.656;23.312;2022-09-09T00:00:29;21.02;;;12.40;;
7169;SDS011;3626;42.656;23.312;2022-09-09T00:00:41;22.30;;;12.63;;
7169;SDS011;3626;42.656;23.312;2022-09-09T00:00:53;23.41;;;12.85;;
7169;SDS011;3626;42.656;23.312;2022-09-09T00:01:07;25.11;;;12.98;;
7169;SDS011;3626;42.656;23.312;2022-09-09T00:01:22;27.99;;;13.57;;
7169;SDS011;3626;42.656;23.312;2022-09-09T00:01:42;27.89;;;13.94;;
7169;SDS011;3626;42.656;23.312;2022-09-09T00:01:54;28.26;;;14.29;;
7169;SDS011;3626;42.656;23.312;2022-09-09T00:02:08;29.58;;;14.75;;
7169;SDS011;3626;42.656;23.312;2022-09-09T00:02:24;28.98;;;14.75;;
7169;SDS011;3626;42.656;23.312;2022-09-09T00:02:33;28.49;;;14.61;;
7169;SDS011;3626;42.656;23.312;2022-09-09T00:02:39;27.77;;;14.55;;
7169;SDS011;3626;42.656;23.312;2022-09-09T00:02:54;27.29;;;14.26;;
7169;SDS011;3626;42.656;23.312;2022-09-09T00:03:08;25.33;;;13.90;;
7169;SDS011;3626;42.656;23.312;2022-09-09T00:03:22;23.85;;;13.38;;
7169;SDS011;3626;42.656;23.312;2022-09-09T00:03:32;22.29;;;13.01;;
7169;SDS011;3626;42.656;23.312;2022-09-09T00:03:47;21.23;;;12.52;;
7169;SDS011;3626;42.656;23.312;2022-09-09T00:04:03;20.35;;;11.88;;
7169;SDS011;3626;42.656;23.312;2022-09-09T00:04:18;21.88;;;11.74;;
7169;SDS011;3626;42.656;23.312;2022-09-09T00:04:31;22.11;;;11.82;;
7169;SDS011;3626;42.656;23.312;2022-09-09T00:04:38;23.07;;;11.80;;
7169;SDS011;3626;42.656;23.312;2022-09-09T00:04:49;24.33;;;11.90;;
7169;SDS011;3626;42.656;23.312;2022-09-09T00:05:14;24.69;;;12.38;;
7169;SDS011;3626;42.656;23.312;2022-09-09T00:05:32;22.11;;;12.31;;
7169;SDS011;3626;42.656;23.312;2022-09-09T00:05:49;21.38;;;12.19;;
7169;SDS011;3626;42.656;23.312;2022-09-09T00:06:02;21.91;;;11.93;;
7169;SDS011;3626;42.656;23.312;2022-09-09T00:06:17;22.56;;;11.95;;
7169;SDS011;3626;42.656;23.312;2022-09-09T00:06:30;21.91;;;11.82;;
7169;SDS011;3626;42.656;23.312;2022-09-09T00:06:43;21.69;;;11.81;;
7169;SDS011;3626;42.656;23.312;2022-09-09T00:06:55;21.67;;;12.15;;
7169;SDS011;3626;42.656;23.312;2022-09-09T00:07:10;19.85;;;12.32;;
7169;SDS011;3626;42.656;23.312;2022-09-09T00:07:21;19.79;;;12.46;;
7169;SDS011;3626;42.656;23.312;2022-09-09T00:07:36;21.36;;;12.98;;
7169;SDS011;3626;42.656;23.312;2022-09-09T00:07:49;21.94;;;13.09;;
7169;SDS011;3626;42.656;23.312;2022-09-09T00:07:58;22.13;;;12.91;;
7169;SDS011;3626;42.656;23.312;2022-09-09T00:08:10;22.75;;;12.91;;
7169;SDS011;3626;42.656;23.312;2022-09-09T00:08:25;22.51;;;12.88;;
7169;SDS011;3626;42.656;23.312;2022-09-09T00:08:41;21.33;;;12.84;;
7169;SDS011;3626;42.656;23.312;2022-09-09T00:08:58;20.20;;;12.80;;
7169;SDS011;3626;42.656;23.312;2022-09-09T00:09:10;19.74;;;12.70;;
7169;SDS011;3626;42.656;23.312;2022-09-09T00:09:20;19.68;;;12.69;;
7169;SDS011;3626;42.656;23.312;2022-09-09T00:09:32;20.06;;;12.30;;
7169;SDS011;3626;42.656;23.312;2022-09-09T00:09:45;20.08;;;12.26;;
7169;SDS011;3626;42.656;23.312;2022-09-09T00:09:53;20.13;;;12.33;;
7169;SDS011;3626;42.656;23.312;2022-09-09T00:10:19;20.20;;;12.49;;
7169;SDS011;3626;42.656;23.312;2022-09-09T00:10:34;21.08;;;12.82;;
7169;SDS011;3626;42.656;23.312;2022-09-09T00:10:44;20.67;;;12.51;;
7169;SDS011;3626;42.656;23.312;2022-09-09T00:10:58;20.17;;;12.29;;
7169;SDS011;3626;42.656;23.312;2022-09-09T00:11:07;19.70;;;12.18;;
7169;SDS011;3626;42.656;23.312;2022-09-09T00:11:19;19.88;;;12.06;;
7169;SDS011;3626;42.656;23.312;2022-09-09T00:11:36;19.44;;;11.86;;
7169;SDS011;3626;42.656;23.312;2022-09-09T00:11:51;20.88;;;12.32;;
7169;SDS011;3626;42.656;23.312;2022-09-09T00:12:02;21.92;;;12.50;;
7169;SDS011;3626;42.656;23.312;2022-09-09T00:12:17;23.58;;;12.70;;
7169;SDS011;3626;42.656;23.312;2022-09-09T00:12:34;25.96;;;12.89;;
7169;SDS011;3626;42.656;23.312;2022-09-09T00:12:49;26.39;;;12.63;;
7169;SDS011;3626;42.656;23.312;2022-09-09T00:13:02;25.60;;;12.40;;
7169;SDS011;3626;42.656;23.312;2022-09-09T00:13:22;22.79;;;12.01;;
7169;SDS011;3626;42.656;23.312;2022-09-09T00:13:36;21.21;;;12.30;;
7169;SDS011;3626;42.656;23.312;2022-09-09T00:13:51;21.20;;;12.39;;
7169;SDS011;3626;42.656;23.312;2022-09-09T00:14:00;22.47;;;12.67;;
7169;SDS011;3626;42.656;23.312;2022-09-09T00:14:17;22.92;;;12.90;;
7169;SDS011;3626;42.656;23.312;2022-09-09T00:14:31;23.40;;;12.91;;
7169;SDS011;3626;42.656;23.312;2022-09-09T00:14:45;23.56;;;13.04;;
7169;SDS011;3626;42.656;23.312;2022-09-09T00:14:58;24.42;;;13.51;;
7169;SDS011;3626;42.656;23.312;2022-09-09T00:15:11;24.33;;;13.70;;
7169;SDS011;3626;42.656;23.312;2022-09-09T00:15:19;26.30;;;13.90;;
7169;SDS011;3626;42.656;23.312;2022-09-09T00:15:29;26.20;;;14.00;;
7169;SDS011;3626;42.656;23.312;2022-09-09T00:15:46;26.76;;;14.00;;
7169;SDS011;3626;42.656;23.312;2022-09-09T00:15:59;26.71;;;13.71;;
7169;SDS011;3626;42.656;23.312;2022-09-09T00:16:09;26.26;;;13.77;;
7169;SDS011;3626;42.656;23.312;2022-09-09T00:16:22;24.41;;;13.43;;
7169;SDS011;3626;42.656;23.312;2022-09-09T00:16:32;24.00;;;13.30;;
7169;SDS011;3626;42.656;23.312;2022-09-09T00:16:46;23.79;;;13.49;;
7169;SDS011;3626;42.656;23.312;2022-09-09T00:16:57;23.95;;;13.69;;
7169;SDS011;3626;42.656;23.312;2022-09-09T00:17:08;24.03;;;13.62;;
7169;SDS011;3626;42.656;23.312;2022-09-09T00:17:21;24.17;;;13.90;;
7169;SDS011;3626;42.656;23.312;2022-09-09T00:17:43;23.66;;;14.05;;
7169;SDS011;3626;42.656;23.312;2022-09-09T00:17:56;24.48;;;14.01;;
7169;SDS011;3626;42.656;23.312;2022-09-09T00:18:11;25.65;;;13.70;;
7169;SDS011;3626;42.656;23.312;2022-09-09T00:18:24;25.13;;;13.44;;
7169;SDS011;3626;42.656;23.312;2022-09-09T00:18:38;23.61;;;13.41;;
7169;SDS011;3626;42.656;23.312;2022-09-09T00:18:55;22.86;;;13.23;;
7169;SDS011;3626;42.656;23.312;2022-09-09T00:19:07;23.74;;;13.55;;
7169;SDS011;3626;42.656;23.312;2022-09-09T00:19:23;26.01;;;13.57;;
7169;SDS011;3626;42.656;23.312;2022-09-09T00:19:37;26.01;;;13.16;;
7169;SDS011;3626;42.656;23.312;2022-09-09T00:19:52;26.20;;;13.29;;
7169;SDS011;3626;42.656;23.312;2022-09-09T00:20:09;25.46;;;13.38;;
7169;SDS011;3626;42.656;23.312;2022-09-09T00:20:20;23.17;;;13.43;;
7169;SDS011;3626;42.656;23.312;2022-09-09T00:20:35;22.74;;;13.27;;
7169;SDS011;3626;42.656;23.312;2022-09-09T00:20:48;21.99;;;12.99;;
7169;SDS011;3626;42.656;23.312;2022-09-09T00:21:02;20.24;;;12.65;;
7169;SDS011;3626;42.656;23.312;2022-09-09T00:21:13;19.45;;;12.23;;
7169;SDS011;3626;42.656;23.312;2022-09-09T00:21:20;18.77;;;11.83;;
7169;SDS011;3626;42.656;23.312;2022-09-09T00:21:34;18.19;;;11.68;;
7169;SDS011;3626;42.656;23.312;2022-09-09T00:21:43;17.61;;;11.63;;
7169;SDS011;3626;42.656;23.312;2022-09-09T00:21:59;19.16;;;11.50;;
7169;SDS011;3626;42.656;23.312;2022-09-09T00:22:15;19.64;;;11.43;;
7169;SDS011;3626;42.656;23.312;2022-09-09T00:22:23;19.90;;;11.95;;
7169;SDS011;3626;42.656;23.312;2022-09-09T00:22:31;19.73;;;12.03;;
7169;SDS011;3626;42.656;23.312;2022-09-09T00:22:38;20.02;;;12.10;;
7169;SDS011;3626;42.656;23.312;2022-09-09T00:22:52;20.19;;;12.56;;
7169;SDS011;3626;42.656;23.312;2022-09-09T00:23:06;19.86;;;12.71;;
7169;SDS011;3626;42.656;23.312;2022-09-09T00:23:20;21.71;;;13.10;;
7169;SDS011;3626;42.656;23.312;2022-09-09T00:23:30;24.72;;;13.59;;
7169;SDS011;3626;42.656;23.312;2022-09-09T00:23:38;25.33;;;13.83;;
7169;SDS011;3626;42.656;23.312;2022-09-09T00:23:46;26.73;;;13.80;;
7169;SDS011;3626;42.656;23.312;2022-09-09T00:23:56;27.07;;;14.02;;
7169;SDS011;3626;42.656;23.312;2022-09-09T00:24:08;27.76;;;14.24;;
7169;SDS011;3626;42.656;23.312;2022-09-09T00:24:23;27.39;;;14.07;;
7169;SDS011;3626;42.656;23.312;2022-09-09T00:24:32;26.13;;;13.77;;
7169;SDS011;3626;42.656;23.312;2022-09-09T00:24:44;27.14;;;13.64;;
7169;SDS011;3626;42.656;23.312;2022-09-09T00:24:51;26.87;;;13.62;;
7169;SDS011;3626;42.656;23.312;2022-09-09T00:25:02;27.45;;;13.47;;
7169;SDS011;3626;42.656;23.312;2022-09-09T00:25:16;28.01;;;13.27;;
7169;SDS011;3626;42.656;23.312;2022-09-09T00:25:29;27.61;;;13.18;;
7169;SDS011;3626;42.656;23.312;2022-09-09T00:25:42;25.71;;;13.20;;
7169;SDS011;3626;42.656;23.312;2022-09-09T00:25:58;24.33;;;13.20;;
7169;SDS011;3626;42.656;23.312;2022-09-09T00:26:09;21.69;;;13.16;;
7169;SDS011;3626;42.656;23.312;2022-09-09T00:26:26;20.91;;;13.27;;
7169;SDS011;3626;42.656;23.312;2022-09-09T00:26:38;21.35;;;13.55;;
7169;SDS011;3626;42.656;23.312;2022-09-09T00:26:48;22.55;;;13.14;;
7169;SDS011;3626;42.656;23.312;2022-09-09T00:27:00;22.75;;;12.93;;
7169;SDS011;3626;42.656;23.312;2022-09-09T00:27:13;22.40;;;12.80;;
7169;SDS011;3626;42.656;23.312;2022-09-09T00:27:25;23.75;;;12.77;;
7169;SDS011;3626;42.656;23.312;2022-09-09T00:27:37;25.48;;;12.84;;
7169;SDS011;3626;42.656;23.312;2022-09-09T00:27:49;24.30;;;13.10;;
7169;SDS011;3626;42.656;23.312;2022-09-09T00:27:56;25.33;;;13.10;;
7169;SDS011;3626;42.656;23.312;2022-09-09T00:28:01;25.52;;;13.35;;
7169;SDS011;3626;42.656;23.312;2022-09-09T00:28:09;24.80;;;13.38;;
7169;SDS011;3626;42.656;23.312;2022-09-09T00:28:23;23.48;;;13.23;;
7169;SDS011;3626;42.656;23.312;2022-09-09T00:28:37;21.42;;;12.99;;
7169;SDS011;3626;42.656;23.312;2022-09-09T00:28:48;19.66;;;12.39;;
7169;SDS011;3626;42.656;23.312;2022-09-09T00:28:58;18.84;;;12.07;;
7169;SDS011;3626;42.656;23.312;2022-09-09T00:29:10;19.56;;;11.83;;
7169;SDS011;3626;42.656;23.312;2022-09-09T00:29:32;19.63;;;11.93;;
7169;SDS011;3626;42.656;23.312;2022-09-09T00:29:43;18.39;;;11.82;;
7169;SDS011;3626;42.656;23.312;2022-09-09T00:29:53;18.08;;;12.20;;
7169;SDS011;3626;42.656;23.312;2022-09-09T00:30:12;17.79;;;12.60;;
7169;SDS011;3626;42.656;23.312;2022-09-09T00:30:22;17.00;;;12.69;;
7169;SDS011;3626;42.656;23.312;2022-09-09T00:30:31;17.63;;;12.40;;
7169;SDS011;3626;42.656;23.312;2022-09-09T00:30:39;19.27;;;12.60;;
7169;SDS011;3626;42.656;23.312;2022-09-09T00:30:46;20.30;;;12.60;;
7169;SDS011;3626;42.656;23.312;2022-09-09T00:30:53;21.77;;;12.70;;
7169;SDS011;3626;42.656;23.312;2022-09-09T00:31:07;22.80;;;12.69;;
7169;SDS011;3626;42.656;23.312;2022-09-09T00:31:19;22.81;;;12.38;;
7169;SDS011;3626;42.656;23.312;2022-09-09T00:31:30;22.27;;;12.26;;
7169;SDS011;3626;42.656;23.312;2022-09-09T00:31:37;21.74;;;12.20;;
7169;SDS011;3626;42.656;23.312;2022-09-09T00:31:43;21.60;;;12.32;;
7169;SDS011;3626;42.656;23.312;2022-09-09T00:31:48;21.73;;;12.38;;
7169;SDS011;3626;42.656;23.312;2022-09-09T00:31:57;20.60;;;12.27;;
7169;SDS011;3626;42.656;23.312;2022-09-09T00:32:11;21.74;;;12.61;;
7169;SDS011;3626;42.656;23.312;2022-09-09T00:32:19;24.17;;;13.30;;
7169;SDS011;3626;42.656;23.312;2022-09-09T00:32:28;24.20;;;13.50;;
7169;SDS011;3626;42.656;23.312;2022-09-09T00:32:35;24.00;;;14.04;;
7169;SDS011;3626;42.656;23.312;2022-09-09T00:32:41;24.20;;;14.10;;
7169;SDS011;3626;42.656;23.312;2022-09-09T00:32:47;24.63;;;14.10;;
7169;SDS011;3626;42.656;23.312;2022-09-09T00:32:54;24.10;;;14.17;;
7169;SDS011;3626;42.656;23.312;2022-09-09T00:33:09;23.31;;;13.99;;
7169;SDS011;3626;42.656;23.312;2022-09-09T00:33:17;22.74;;;13.61;;
7169;SDS011;3626;42.656;23.312;2022-09-09T00:33:27;23.77;;;13.35;;
7169;SDS011;3626;42.656;23.312;2022-09-09T00:33:35;24.62;;;13.22;;
7169;SDS011;3626;42.656;23.312;2022-09-09T00:33:45;24.57;;;12.90;;
7169;SDS011;3626;42.656;23.312;2022-09-09T00:33:53;24.47;;;12.77;;
7169;SDS011;3626;42.656;23.312;2022-09-09T00:34:02;24.78;;;12.80;;
7169;SDS011;3626;42.656;23.312;2022-09-09T00:34:15;23.10;;;13.00;;
7169;SDS011;3626;42.656;23.312;2022-09-09T00:34:24;23.40;;;13.31;;
7169;SDS011;3626;42.656;23.312;2022-09-09T00:34:32;22.72;;;13.34;;
7169;SDS011;3626;42.656;23.312;2022-09-09T00:34:46;21.05;;;13.07;;
7169;SDS011;3626;42.656;23.312;2022-09-09T00:34:55;21.11;;;13.11;;
7169;SDS011;3626;42.656;23.312;2022-09-09T00:35:10;21.17;;;13.23;;
7169;SDS011;3626;42.656;23.312;2022-09-09T00:35:24;21.36;;;12.77;;
7169;SDS011;3626;42.656;23.312;2022-09-09T00:35:34;19.81;;;12.29;;
7169;SDS011;3626;42.656;23.312;2022-09-09T00:35:44;20.61;;;12.52;;
7169;SDS011;3626;42.656;23.312;2022-09-09T00:35:53;20.56;;;12.23;;
7169;SDS011;3626;42.656;23.312;2022-09-09T00:36:01;20.48;;;12.43;;
7169;SDS011;3626;42.656;23.312;2022-09-09T00:36:09;18.07;;;12.40;;
7169;SDS011;3626;42.656;23.312;2022-09-09T00:36:20;18.04;;;12.37;;
7169;SDS011;3626;42.656;23.312;2022-09-09T00:36:30;17.66;;;11.92;;
7169;SDS011;3626;42.656;23.312;2022-09-09T00:36:38;16.90;;;11.53;;
7169;SDS011;3626;42.656;23.312;2022-09-09T00:36:45;17.22;;;11.76;;
7169;SDS011;3626;42.656;23.312;2022-09-09T00:36:56;17.33;;;11.60;;
7169;SDS011;3626;42.656;23.312;2022-09-09T00:37:02;17.40;;;11.40;;
7169;SDS011;3626;42.656;23.312;2022-09-09T00:37:08;17.80;;;11.32;;
7169;SDS011;3626;42.656;23.312;2022-09-09T00:37:14;17.92;;;11.54;;
7169;SDS011;3626;42.656;23.312;2022-09-09T00:37:21;18.25;;;11.77;;
7169;SDS011;3626;42.656;23.312;2022-09-09T00:37:30;18.77;;;12.13;;
7169;SDS011;3626;42.656;23.312;2022-09-09T00:37:37;18.20;;;12.10;;
7169;SDS011;3626;42.656;23.312;2022-09-09T00:37:45;19.42;;;12.27;;
7169;SDS011;3626;42.656;23.312;2022-09-09T00:37:54;19.83;;;12.40;;
7169;SDS011;3626;42.656;23.312;2022-09-09T00:38:05;22.44;;;12.50;;
7169;SDS011;3626;42.656;23.312;2022-09-09T00:38:19;22.39;;;12.49;;
7169;SDS011;3626;42.656;23.312;2022-09-09T00:38:31;22.24;;;12.35;;
7169;SDS011;3626;42.656;23.312;2022-09-09T00:38:40;22.30;;;12.03;;
7169;SDS011;3626;42.656;23.312;2022-09-09T00:38:51;20.51;;;11.87;;
7169;SDS011;3626;42.656;23.312;2022-09-09T00:39:01;17.96;;;11.94;;
7169;SDS011;3626;42.656;23.312;2022-09-09T00:39:09;17.44;;;11.90;;
7169;SDS011;3626;42.656;23.312;2022-09-09T00:39:23;17.28;;;11.82;;
7169;SDS011;3626;42.656;23.312;2022-09-09T00:39:37;17.80;;;12.00;;
7169;SDS011;3626;42.656;23.312;2022-09-09T00:39:47;18.00;;;11.98;;
7169;SDS011;3626;42.656;23.312;2022-09-09T00:39:57;18.39;;;12.00;;
7169;SDS011;3626;42.656;23.312;2022-09-09T00:40:11;18.29;;;11.98;;
7169;SDS011;3626;42.656;23.312;2022-09-09T00:40:29;18.51;;;11.91;;
7169;SDS011;3626;42.656;23.312;2022-09-09T00:40:39;17.77;;;11.80;;
7169;SDS011;3626;42.656;23.312;2022-09-09T00:40:52;17.15;;;11.63;;
7169;SDS011;3626;42.656;23.312;2022-09-09T00:41:04;16.93;;;11.50;;
7169;SDS011;3626;42.656;23.312;2022-09-09T00:41:19;18.04;;;11.81;;
7169;SDS011;3626;42.656;23.312;2022-09-09T00:41:30;18.97;;;12.33;;
7169;SDS011;3626;42.656;23.312;2022-09-09T00:41:50;20.40;;;12.69;;
7169;SDS011;3626;42.656;23.312;2022-09-09T00:42:08;23.59;;;13.40;;
7169;SDS011;3626;42.656;23.312;2022-09-09T00:42:20;24.16;;;13.48;;
7169;SDS011;3626;42.656;23.312;2022-09-09T00:42:32;24.07;;;13.44;;
7169;SDS011;3626;42.656;23.312;2022-09-09T00:42:46;22.81;;;13.18;;
7169;SDS011;3626;42.656;23.312;2022-09-09T00:43:12;19.40;;;12.44;;
7169;SDS011;3626;42.656;23.312;2022-09-09T00:43:31;19.69;;;12.07;;
7169;SDS011;3626;42.656;23.312;2022-09-09T00:43:40;22.05;;;12.25;;
7169;SDS011;3626;42.656;23.312;2022-09-09T00:43:46;22.23;;;12.30;;
7169;SDS011;3626;42.656;23.312;2022-09-09T00:44:02;23.55;;;12.26;;
7169;SDS011;3626;42.656;23.312;2022-09-09T00:44:27;22.96;;;12.10;;
7169;SDS011;3626;42.656;23.312;2022-09-09T00:44:42;18.83;;;11.94;;
7169;SDS011;3626;42.656;23.312;2022-09-09T00:45:02;17.85;;;11.76;;
7169;SDS011;3626;42.656;23.312;2022-09-09T00:45:24;16.14;;;11.70;;
7169;SDS011;3626;42.656;23.312;2022-09-09T00:46:41;20.56;;;11.46;;
7169;SDS011;3626;42.656;23.312;2022-09-09T00:47:12;20.98;;;12.09;;
7169;SDS011;3626;42.656;23.312;2022-09-09T00:47:42;17.67;;;11.80;;
7169;SDS011;3626;42.656;23.312;2022-09-09T00:47:51;16.76;;;11.39;;
7169;SDS011;3626;42.656;23.312;2022-09-09T00:47:57;16.80;;;11.27;;
7169;SDS011;3626;42.656;23.312;2022-09-09T00:48:11;17.21;;;11.23;;
7169;SDS011;3626;42.656;23.312;2022-09-09T00:48:17;18.38;;;11.40;;
7169;SDS011;3626;42.656;23.312;2022-09-09T00:48:27;17.77;;;11.50;;
7169;SDS011;3626;42.656;23.312;2022-09-09T00:48:43;17.60;;;11.50;;
7169;SDS011;3626;42.656;23.312;2022-09-09T00:48:59;17.66;;;11.26;;
7169;SDS011;3626;42.656;23.312;2022-09-09T00:49:14;17.92;;;11.29;;
7169;SDS011;3626;42.656;23.312;2022-09-09T00:49:28;18.86;;;11.29;;
7169;SDS011;3626;42.656;23.312;2022-09-09T00:49:44;20.42;;;11.23;;
7169;SDS011;3626;42.656;23.312;2022-09-09T00:50:01;19.06;;;11.38;;
7169;SDS011;3626;42.656;23.312;2022-09-09T00:50:22;18.27;;;11.71;;
7169;SDS011;3626;42.656;23.312;2022-09-09T00:50:41;17.06;;;11.80;;
7169;SDS011;3626;42.656;23.312;2022-09-09T00:50:57;16.21;;;11.90;;
7169;SDS011;3626;42.656;23.312;2022-09-09T00:51:09;16.36;;;11.69;;
7169;SDS011;3626;42.656;23.312;2022-09-09T00:51:25;15.80;;;11.39;;
7169;SDS011;3626;42.656;23.312;2022-09-09T00:51:43;16.66;;;11.15;;
7169;SDS011;3626;42.656;23.312;2022-09-09T00:51:59;18.13;;;11.02;;
7169;SDS011;3626;42.656;23.312;2022-09-09T00:52:21;19.59;;;11.49;;
7169;SDS011;3626;42.656;23.312;2022-09-09T00:52:36;18.51;;;11.81;;
7169;SDS011;3626;42.656;23.312;2022-09-09T00:52:50;17.66;;;12.09;;
7169;SDS011;3626;42.656;23.312;2022-09-09T00:53:10;17.26;;;11.88;;
7169;SDS011;3626;42.656;23.312;2022-09-09T00:53:30;16.61;;;11.68;;
7169;SDS011;3626;42.656;23.312;2022-09-09T00:53:55;16.10;;;11.46;;
7169;SDS011;3626;42.656;23.312;2022-09-09T00:54:20;16.08;;;11.26;;
7169;SDS011;3626;42.656;23.312;2022-09-09T00:54:40;18.17;;;11.64;;
7169;SDS011;3626;42.656;23.312;2022-09-09T00:54:54;19.06;;;11.90;;
7169;SDS011;3626;42.656;23.312;2022-09-09T00:55:11;18.55;;;12.27;;
7169;SDS011;3626;42.656;23.312;2022-09-09T00:55:23;18.31;;;12.36;;
7169;SDS011;3626;42.656;23.312;2022-09-09T00:55:40;17.51;;;12.06;;
7169;SDS011;3626;42.656;23.312;2022-09-09T00:55:52;17.17;;;12.05;;
7169;SDS011;3626;42.656;23.312;2022-09-09T00:56:06;17.95;;;11.86;;
7169;SDS011;3626;42.656;23.312;2022-09-09T00:56:19;17.89;;;11.46;;
7169;SDS011;3626;42.656;23.312;2022-09-09T00:56:30;17.77;;;11.44;;
7169;SDS011;3626;42.656;23.312;2022-09-09T00:56:49;18.15;;;11.79;;
7169;SDS011;3626;42.656;23.312;2022-09-09T00:57:18;18.19;;;11.95;;
7169;SDS011;3626;42.656;23.312;2022-09-09T00:57:33;19.23;;;12.45;;
7169;SDS011;3626;42.656;23.312;2022-09-09T00:57:40;20.60;;;12.70;;
7169;SDS011;3626;42.656;23.312;2022-09-09T00:57:47;20.70;;;12.53;;
7169;SDS011;3626;42.656;23.312;2022-09-09T00:57:56;20.10;;;12.80;;
7169;SDS011;3626;42.656;23.312;2022-09-09T00:58:02;20.55;;;13.05;;
7169;SDS011;3626;42.656;23.312;2022-09-09T00:58:13;20.47;;;13.07;;
7169;SDS011;3626;42.656;23.312;2022-09-09T00:58:19;21.50;;;12.96;;
7169;SDS011;3626;42.656;23.312;2022-09-09T00:58:25;23.13;;;12.93;;
7169;SDS011;3626;42.656;23.312;2022-09-09T00:58:32;23.08;;;12.68;;
7169;SDS011;3626;42.656;23.312;2022-09-09T00:58:38;22.67;;;12.80;;
7169;SDS011;3626;42.656;23.312;2022-09-09T00:58:45;22.38;;;12.90;;
7169;SDS011;3626;42.656;23.312;2022-09-09T00:59:07;24.17;;;13.23;;
7169;SDS011;3626;42.656;23.312;2022-09-09T00:59:27;23.41;;;13.02;;
7169;SDS011;3626;42.656;23.312;2022-09-09T00:59:45;20.33;;;12.52;;
7169;SDS011;3626;42.656;23.312;2022-09-09T00:59:55;18.30;;;11.73;;
7169;SDS011;3626;42.656;23.312;2022-09-09T01:00:19;17.11;;;11.32;;
7169;SDS011;3626;42.656;23.312;2022-09-09T01:00:27;18.36;;;11.30;;
7169;SDS011;3626;42.656;23.312;2022-09-09T01:00:35;19.23;;;11.20;;
7169;SDS011;3626;42.656;23.312;2022-09-09T01:00:49;19.59;;;11.30;;
7169;SDS011;3626;42.656;23.312;2022-09-09T01:01:02;21.36;;;11.52;;
7169;SDS011;3626;42.656;23.312;2022-09-09T01:01:12;20.91;;;11.50;;
7169;SDS011;3626;42.656;23.312;2022-09-09T01:01:18;19.18;;;11.60;;
7169;SDS011;3626;42.656;23.312;2022-09-09T01:01:24;19.30;;;11.75;;
7169;SDS011;3626;42.656;23.312;2022-09-09T01:01:30;20.40;;;12.20;;
7169;SDS011;3626;42.656;23.312;2022-09-09T01:01:36;20.27;;;12.13;;
7169;SDS011;3626;42.656;23.312;2022-09-09T01:01:44;20.11;;;12.21;;
7169;SDS011;3626;42.656;23.312;2022-09-09T01:01:50;19.83;;;12.43;;
7169;SDS011;3626;42.656;23.312;2022-09-09T01:01:57;19.12;;;12.42;;
7169;SDS011;3626;42.656;23.312;2022-09-09T01:02:06;20.78;;;12.64;;
7169;SDS011;3626;42.656;23.312;2022-09-09T01:02:26;21.77;;;12.88;;
7169;SDS011;3626;42.656;23.312;2022-09-09T01:02:35;21.71;;;12.85;;
7169;SDS011;3626;42.656;23.312;2022-09-09T01:02:52;21.92;;;12.73;;
7169;SDS011;3626;42.656;23.312;2022-09-09T01:03:12;22.00;;;12.56;;
7169;SDS011;3626;42.656;23.312;2022-09-09T01:03:29;21.79;;;12.63;;
7169;SDS011;3626;42.656;23.312;2022-09-09T01:03:42;24.08;;;13.04;;
7169;SDS011;3626;42.656;23.312;2022-09-09T01:03:53;25.63;;;13.39;;
7169;SDS011;3626;42.656;23.312;2022-09-09T01:04:00;26.67;;;13.20;;
7169;SDS011;3626;42.656;23.312;2022-09-09T01:04:09;27.01;;;13.30;;
7169;SDS011;3626;42.656;23.312;2022-09-09T01:04:23;26.95;;;13.20;;
7169;SDS011;3626;42.656;23.312;2022-09-09T01:04:36;25.85;;;13.16;;
7169;SDS011;3626;42.656;23.312;2022-09-09T01:04:42;26.58;;;13.43;;
7169;SDS011;3626;42.656;23.312;2022-09-09T01:04:48;27.92;;;13.65;;
7169;SDS011;3626;42.656;23.312;2022-09-09T01:04:54;28.08;;;14.00;;
7169;SDS011;3626;42.656;23.312;2022-09-09T01:05:05;27.70;;;14.20;;
7169;SDS011;3626;42.656;23.312;2022-09-09T01:05:18;27.76;;;14.26;;
7169;SDS011;3626;42.656;23.312;2022-09-09T01:05:33;27.70;;;14.02;;
7169;SDS011;3626;42.656;23.312;2022-09-09T01:05:44;27.08;;;13.57;;
7169;SDS011;3626;42.656;23.312;2022-09-09T01:06:00;24.34;;;12.80;;
7169;SDS011;3626;42.656;23.312;2022-09-09T01:06:13;23.69;;;12.46;;
7169;SDS011;3626;42.656;23.312;2022-09-09T01:06:22;25.25;;;12.80;;
7169;SDS011;3626;42.656;23.312;2022-09-09T01:06:35;24.86;;;13.01;;
7169;SDS011;3626;42.656;23.312;2022-09-09T01:06:43;25.93;;;13.47;;
7169;SDS011;3626;42.656;23.312;2022-09-09T01:06:59;26.92;;;13.69;;
7169;SDS011;3626;42.656;23.312;2022-09-09T01:07:13;28.44;;;13.85;;
7169;SDS011;3626;42.656;23.312;2022-09-09T01:07:22;28.67;;;13.86;;
7169;SDS011;3626;42.656;23.312;2022-09-09T01:07:28;29.50;;;13.60;;
7169;SDS011;3626;42.656;23.312;2022-09-09T01:07:35;28.93;;;13.70;;
7169;SDS011;3626;42.656;23.312;2022-09-09T01:07:42;28.97;;;13.70;;
7169;SDS011;3626;42.656;23.312;2022-09-09T01:07:52;29.70;;;13.84;;
7169;SDS011;3626;42.656;23.312;2022-09-09T01:08:00;29.87;;;14.30;;
7169;SDS011;3626;42.656;23.312;2022-09-09T01:08:39;28.08;;;14.25;;
7169;SDS011;3626;42.656;23.312;2022-09-09T01:09:07;27.20;;;14.21;;
7169;SDS011;3626;42.656;23.312;2022-09-09T01:09:21;29.61;;;14.77;;
7169;SDS011;3626;42.656;23.312;2022-09-09T01:09:32;34.55;;;15.95;;
7169;SDS011;3626;42.656;23.312;2022-09-09T01:09:51;36.19;;;16.42;;
7169;SDS011;3626;42.656;23.312;2022-09-09T01:10:00;38.41;;;16.41;;
7169;SDS011;3626;42.656;23.312;2022-09-09T01:10:10;38.41;;;16.37;;
7169;SDS011;3626;42.656;23.312;2022-09-09T01:10:27;38.71;;;15.93;;
7169;SDS011;3626;42.656;23.312;2022-09-09T01:10:43;38.33;;;14.91;;
7169;SDS011;3626;42.656;23.312;2022-09-09T01:10:56;37.19;;;14.66;;
7169;SDS011;3626;42.656;23.312;2022-09-09T01:11:03;35.00;;;14.50;;
7169;SDS011;3626;42.656;23.312;2022-09-09T01:11:10;35.10;;;14.63;;
7169;SDS011;3626;42.656;23.312;2022-09-09T01:11:26;33.33;;;14.41;;
7169;SDS011;3626;42.656;23.312;2022-09-09T01:11:40;30.92;;;14.26;;
7169;SDS011;3626;42.656;23.312;2022-09-09T01:11:55;31.38;;;14.51;;
7169;SDS011;3626;42.656;23.312;2022-09-09T01:12:09;35.15;;;14.63;;
7169;SDS011;3626;42.656;23.312;2022-09-09T01:12:23;36.40;;;14.82;;
7169;SDS011;3626;42.656;23.312;2022-09-09T01:12:44;37.17;;;14.84;;
7169;SDS011;3626;42.656;23.312;2022-09-09T01:12:52;34.93;;;14.57;;
7169;SDS011;3626;42.656;23.312;2022-09-09T01:13:04;33.17;;;14.50;;
7169;SDS011;3626;42.656;23.312;2022-09-09T01:13:20;33.09;;;14.18;;
7169;SDS011;3626;42.656;23.312;2022-09-09T01:13:29;29.90;;;13.94;;
7169;SDS011;3626;42.656;23.312;2022-09-09T01:13:38;30.53;;;13.97;;
7169;SDS011;3626;42.656;23.312;2022-09-09T01:13:47;29.80;;;14.00;;
7169;SDS011;3626;42.656;23.312;2022-09-09T01:14:00;29.10;;;14.19;;
7169;SDS011;3626;42.656;23.312;2022-09-09T01:14:13;27.63;;;14.27;;
7169;SDS011;3626;42.656;23.312;2022-09-09T01:14:43;28.17;;;14.59;;
7169;SDS011;3626;42.656;23.312;2022-09-09T01:14:54;28.84;;;14.56;;
7169;SDS011;3626;42.656;23.312;2022-09-09T01:15:09;28.02;;;14.07;;
7169;SDS011;3626;42.656;23.312;2022-09-09T01:15:18;28.57;;;13.80;;
7169;SDS011;3626;42.656;23.312;2022-09-09T01:15:29;27.00;;;13.75;;
7169;SDS011;3626;42.656;23.312;2022-09-09T01:15:37;24.40;;;13.20;;
7169;SDS011;3626;42.656;23.312;2022-09-09T01:15:46;22.95;;;13.15;;